sensor_id;sensor_type;location;lat;lon;timestamp;P1;durP1;ratioP1;P2;durP2;ratioP2
34152;SDS011;20426;48.372;10.888;2023-04-30T00:00:06;6.47;;;3.28;;
34152;SDS011;20426;48.372;10.888;2023-04-30T00:00:38;4.40;;;2.92;;
34152;SDS011;20426;48.372;10.888;2023-04-30T00:01:09;4.70;;;2.90;;
34152;SDS011;20426;48.372;10.888;2023-04-30T00:01:40;4.28;;;2.95;;
34152;SDS011;20426;48.372;10.888;2023-04-30T00:02:10;2.97;;;2.60;;
34152;SDS011;20426;48.372;10.888;2023-04-30T00:02:41;3.63;;;2.80;;
34152;SDS011;20426;48.372;10.888;2023-04-30T00:03:12;4.65;;;3.00;;
34152;SDS011;20426;48.372;10.888;2023-04-30T00:03:43;5.47;;;3.00;;
34152;SDS011;20426;48.372;10.888;2023-04-30T00:04:13;3.15;;;2.40;;
34152;SDS011;20426;48.372;10.888;2023-04-30T00:04:44;3.47;;;2.53;;
34152;SDS011;20426;48.372;10.888;2023-04-30T00:05:15;4.15;;;2.78;;
34152;SDS011;20426;48.372;10.888;2023-04-30T00:05:49;4.85;;;3.20;;
34152;SDS011;20426;48.372;10.888;2023-04-30T00:06:20;5.72;;;3.60;;
34152;SDS011;20426;48.372;10.888;2023-04-30T00:06:51;4.05;;;3.33;;
34152;SDS011;20426;48.372;10.888;2023-04-30T00:07:22;4.70;;;2.97;;
34152;SDS011;20426;48.372;10.888;2023-04-30T00:07:53;3.88;;;2.55;;
34152;SDS011;20426;48.372;10.888;2023-04-30T00:08:23;4.03;;;2.80;;
34152;SDS011;20426;48.372;10.888;2023-04-30T00:08:54;6.15;;;3.22;;
34152;SDS011;20426;48.372;10.888;2023-04-30T00:09:25;3.42;;;2.95;;
34152;SDS011;20426;48.372;10.888;2023-04-30T00:09:55;3.58;;;2.95;;
34152;SDS011;20426;48.372;10.888;2023-04-30T00:10:26;4.78;;;3.10;;
34152;SDS011;20426;48.372;10.888;2023-04-30T00:10:57;4.95;;;3.60;;
34152;SDS011;20426;48.372;10.888;2023-04-30T00:11:28;3.47;;;3.10;;
34152;SDS011;20426;48.372;10.888;2023-04-30T00:11:58;5.53;;;3.28;;
34152;SDS011;20426;48.372;10.888;2023-04-30T00:12:29;3.75;;;2.47;;
34152;SDS011;20426;48.372;10.888;2023-04-30T00:13:00;3.47;;;2.75;;
34152;SDS011;20426;48.372;10.888;2023-04-30T00:13:30;3.40;;;2.60;;
34152;SDS011;20426;48.372;10.888;2023-04-30T00:14:01;3.78;;;2.78;;
34152;SDS011;20426;48.372;10.888;2023-04-30T00:14:32;4.25;;;2.70;;
34152;SDS011;20426;48.372;10.888;2023-04-30T00:15:02;4.00;;;2.75;;
34152;SDS011;20426;48.372;10.888;2023-04-30T00:15:33;3.88;;;2.65;;
34152;SDS011;20426;48.372;10.888;2023-04-30T00:16:05;5.30;;;3.08;;
34152;SDS011;20426;48.372;10.888;2023-04-30T00:16:36;6.38;;;3.17;;
34152;SDS011;20426;48.372;10.888;2023-04-30T00:17:06;3.13;;;2.60;;
34152;SDS011;20426;48.372;10.888;2023-04-30T00:17:37;4.32;;;2.83;;
34152;SDS011;20426;48.372;10.888;2023-04-30T00:18:08;3.45;;;2.78;;
34152;SDS011;20426;48.372;10.888;2023-04-30T00:18:38;4.95;;;3.33;;
34152;SDS011;20426;48.372;10.888;2023-04-30T00:19:09;3.83;;;2.60;;
34152;SDS011;20426;48.372;10.888;2023-04-30T00:19:40;4.40;;;2.70;;
34152;SDS011;20426;48.372;10.888;2023-04-30T00:20:11;3.78;;;2.63;;
34152;SDS011;20426;48.372;10.888;2023-04-30T00:20:42;4.90;;;3.05;;
34152;SDS011;20426;48.372;10.888;2023-04-30T00:21:13;3.75;;;3.00;;
34152;SDS011;20426;48.372;10.888;2023-04-30T00:21:44;5.53;;;3.13;;
34152;SDS011;20426;48.372;10.888;2023-04-30T00:22:15;3.95;;;2.33;;
34152;SDS011;20426;48.372;10.888;2023-04-30T00:22:45;3.35;;;2.72;;
34152;SDS011;20426;48.372;10.888;2023-04-30T00:23:16;4.93;;;2.70;;
34152;SDS011;20426;48.372;10.888;2023-04-30T00:23:47;4.40;;;3.13;;
34152;SDS011;20426;48.372;10.888;2023-04-30T00:24:17;3.33;;;2.67;;
34152;SDS011;20426;48.372;10.888;2023-04-30T00:24:48;4.28;;;2.65;;
34152;SDS011;20426;48.372;10.888;2023-04-30T00:25:19;3.17;;;2.88;;
34152;SDS011;20426;48.372;10.888;2023-04-30T00:25:50;4.70;;;3.10;;
34152;SDS011;20426;48.372;10.888;2023-04-30T00:26:20;3.50;;;2.42;;
34152;SDS011;20426;48.372;10.888;2023-04-30T00:26:51;4.05;;;2.83;;
34152;SDS011;20426;48.372;10.888;2023-04-30T00:27:22;3.50;;;2.60;;
34152;SDS011;20426;48.372;10.888;2023-04-30T00:27:52;3.70;;;2.63;;
34152;SDS011;20426;48.372;10.888;2023-04-30T00:28:23;3.88;;;2.90;;
34152;SDS011;20426;48.372;10.888;2023-04-30T00:28:54;4.15;;;2.88;;
34152;SDS011;20426;48.372;10.888;2023-04-30T00:29:25;6.07;;;2.90;;
34152;SDS011;20426;48.372;10.888;2023-04-30T00:29:55;4.35;;;3.03;;
34152;SDS011;20426;48.372;10.888;2023-04-30T00:30:26;3.63;;;2.83;;
34152;SDS011;20426;48.372;10.888;2023-04-30T00:30:57;3.80;;;2.38;;
34152;SDS011;20426;48.372;10.888;2023-04-30T00:31:28;4.15;;;2.83;;
34152;SDS011;20426;48.372;10.888;2023-04-30T00:31:58;3.58;;;2.45;;
34152;SDS011;20426;48.372;10.888;2023-04-30T00:32:29;4.78;;;3.22;;
34152;SDS011;20426;48.372;10.888;2023-04-30T00:33:00;4.53;;;3.17;;
34152;SDS011;20426;48.372;10.888;2023-04-30T00:33:31;3.38;;;2.53;;
34152;SDS011;20426;48.372;10.888;2023-04-30T00:34:01;4.60;;;2.78;;
34152;SDS011;20426;48.372;10.888;2023-04-30T00:34:32;4.40;;;2.83;;
34152;SDS011;20426;48.372;10.888;2023-04-30T00:35:03;3.88;;;3.03;;
34152;SDS011;20426;48.372;10.888;2023-04-30T00:35:34;6.47;;;3.20;;
34152;SDS011;20426;48.372;10.888;2023-04-30T00:36:05;3.70;;;2.80;;
34152;SDS011;20426;48.372;10.888;2023-04-30T00:36:35;3.97;;;2.85;;
34152;SDS011;20426;48.372;10.888;2023-04-30T00:37:06;4.40;;;2.70;;
34152;SDS011;20426;48.372;10.888;2023-04-30T00:37:37;3.65;;;2.72;;
34152;SDS011;20426;48.372;10.888;2023-04-30T00:38:07;3.28;;;2.80;;
34152;SDS011;20426;48.372;10.888;2023-04-30T00:38:38;4.55;;;2.78;;
34152;SDS011;20426;48.372;10.888;2023-04-30T00:39:09;3.50;;;2.75;;
34152;SDS011;20426;48.372;10.888;2023-04-30T00:39:40;5.60;;;3.58;;
34152;SDS011;20426;48.372;10.888;2023-04-30T00:40:11;3.92;;;2.85;;
34152;SDS011;20426;48.372;10.888;2023-04-30T00:40:41;4.28;;;2.70;;
34152;SDS011;20426;48.372;10.888;2023-04-30T00:41:13;4.97;;;2.97;;
34152;SDS011;20426;48.372;10.888;2023-04-30T00:41:44;3.60;;;2.70;;
34152;SDS011;20426;48.372;10.888;2023-04-30T00:42:15;4.70;;;2.97;;
34152;SDS011;20426;48.372;10.888;2023-04-30T00:42:45;4.90;;;2.90;;
34152;SDS011;20426;48.372;10.888;2023-04-30T00:43:17;6.35;;;2.80;;
34152;SDS011;20426;48.372;10.888;2023-04-30T00:43:48;4.15;;;3.00;;
34152;SDS011;20426;48.372;10.888;2023-04-30T00:44:19;3.03;;;2.47;;
34152;SDS011;20426;48.372;10.888;2023-04-30T00:44:49;3.42;;;2.55;;
34152;SDS011;20426;48.372;10.888;2023-04-30T00:45:20;4.30;;;2.83;;
34152;SDS011;20426;48.372;10.888;2023-04-30T00:45:52;4.90;;;3.20;;
34152;SDS011;20426;48.372;10.888;2023-04-30T00:46:23;3.22;;;2.45;;
34152;SDS011;20426;48.372;10.888;2023-04-30T00:46:53;3.70;;;2.65;;
34152;SDS011;20426;48.372;10.888;2023-04-30T00:47:24;4.55;;;3.00;;
34152;SDS011;20426;48.372;10.888;2023-04-30T00:47:55;4.88;;;2.83;;
34152;SDS011;20426;48.372;10.888;2023-04-30T00:48:26;3.65;;;2.83;;
34152;SDS011;20426;48.372;10.888;2023-04-30T00:48:57;3.72;;;2.90;;
34152;SDS011;20426;48.372;10.888;2023-04-30T00:49:29;7.88;;;2.88;;
34152;SDS011;20426;48.372;10.888;2023-04-30T00:49:59;6.13;;;2.95;;
34152;SDS011;20426;48.372;10.888;2023-04-30T00:50:30;3.58;;;2.63;;
34152;SDS011;20426;48.372;10.888;2023-04-30T00:51:01;3.22;;;2.92;;
34152;SDS011;20426;48.372;10.888;2023-04-30T00:51:33;3.45;;;2.75;;
34152;SDS011;20426;48.372;10.888;2023-04-30T00:52:04;5.18;;;3.00;;
34152;SDS011;20426;48.372;10.888;2023-04-30T00:52:36;7.13;;;3.53;;
34152;SDS011;20426;48.372;10.888;2023-04-30T00:53:07;5.68;;;3.50;;
34152;SDS011;20426;48.372;10.888;2023-04-30T00:53:38;3.70;;;2.88;;
34152;SDS011;20426;48.372;10.888;2023-04-30T00:54:09;6.82;;;3.10;;
34152;SDS011;20426;48.372;10.888;2023-04-30T00:54:40;5.18;;;3.40;;
34152;SDS011;20426;48.372;10.888;2023-04-30T00:55:11;3.83;;;2.75;;
34152;SDS011;20426;48.372;10.888;2023-04-30T00:55:42;4.68;;;3.63;;
34152;SDS011;20426;48.372;10.888;2023-04-30T00:56:13;3.30;;;2.78;;
34152;SDS011;20426;48.372;10.888;2023-04-30T00:56:47;3.30;;;2.65;;
34152;SDS011;20426;48.372;10.888;2023-04-30T00:57:18;3.85;;;2.85;;
34152;SDS011;20426;48.372;10.888;2023-04-30T00:57:50;5.40;;;3.08;;
34152;SDS011;20426;48.372;10.888;2023-04-30T00:58:21;7.05;;;3.38;;
34152;SDS011;20426;48.372;10.888;2023-04-30T00:58:52;5.32;;;3.97;;
34152;SDS011;20426;48.372;10.888;2023-04-30T00:59:26;3.97;;;2.92;;
34152;SDS011;20426;48.372;10.888;2023-04-30T00:59:59;4.03;;;3.13;;
34152;SDS011;20426;48.372;10.888;2023-04-30T01:00:29;3.78;;;2.97;;
34152;SDS011;20426;48.372;10.888;2023-04-30T01:01:01;3.95;;;3.08;;
34152;SDS011;20426;48.372;10.888;2023-04-30T01:01:33;3.85;;;2.58;;
34152;SDS011;20426;48.372;10.888;2023-04-30T01:02:04;3.58;;;3.13;;
34152;SDS011;20426;48.372;10.888;2023-04-30T01:02:35;3.95;;;2.90;;
34152;SDS011;20426;48.372;10.888;2023-04-30T01:03:06;5.03;;;2.83;;
34152;SDS011;20426;48.372;10.888;2023-04-30T01:03:37;4.07;;;2.92;;
34152;SDS011;20426;48.372;10.888;2023-04-30T01:04:08;4.13;;;2.85;;
34152;SDS011;20426;48.372;10.888;2023-04-30T01:04:39;5.30;;;3.38;;
34152;SDS011;20426;48.372;10.888;2023-04-30T01:05:11;5.70;;;3.30;;
34152;SDS011;20426;48.372;10.888;2023-04-30T01:05:41;4.50;;;3.15;;
34152;SDS011;20426;48.372;10.888;2023-04-30T01:06:12;4.60;;;3.08;;
34152;SDS011;20426;48.372;10.888;2023-04-30T01:06:43;4.35;;;3.22;;
34152;SDS011;20426;48.372;10.888;2023-04-30T01:07:15;3.63;;;2.80;;
34152;SDS011;20426;48.372;10.888;2023-04-30T01:07:46;4.28;;;2.80;;
34152;SDS011;20426;48.372;10.888;2023-04-30T01:08:16;3.67;;;2.83;;
34152;SDS011;20426;48.372;10.888;2023-04-30T01:08:47;5.70;;;3.30;;
34152;SDS011;20426;48.372;10.888;2023-04-30T01:09:18;5.22;;;3.05;;
34152;SDS011;20426;48.372;10.888;2023-04-30T01:09:49;5.32;;;2.75;;
34152;SDS011;20426;48.372;10.888;2023-04-30T01:10:20;3.75;;;2.90;;
34152;SDS011;20426;48.372;10.888;2023-04-30T01:12:16;4.07;;;3.00;;
34152;SDS011;20426;48.372;10.888;2023-04-30T01:12:57;4.15;;;2.92;;
34152;SDS011;20426;48.372;10.888;2023-04-30T01:13:39;6.55;;;3.53;;
34152;SDS011;20426;48.372;10.888;2023-04-30T01:16:46;4.65;;;3.15;;
34152;SDS011;20426;48.372;10.888;2023-04-30T01:17:32;4.50;;;3.05;;
34152;SDS011;20426;48.372;10.888;2023-04-30T01:18:06;5.55;;;3.60;;
34152;SDS011;20426;48.372;10.888;2023-04-30T01:18:44;4.50;;;3.08;;
34152;SDS011;20426;48.372;10.888;2023-04-30T01:20:12;4.25;;;3.38;;
34152;SDS011;20426;48.372;10.888;2023-04-30T01:20:44;4.57;;;2.92;;
34152;SDS011;20426;48.372;10.888;2023-04-30T01:21:19;6.15;;;3.50;;
34152;SDS011;20426;48.372;10.888;2023-04-30T01:21:50;5.03;;;2.85;;
34152;SDS011;20426;48.372;10.888;2023-04-30T01:23:07;4.05;;;3.22;;
34152;SDS011;20426;48.372;10.888;2023-04-30T01:25:43;4.07;;;3.42;;
34152;SDS011;20426;48.372;10.888;2023-04-30T01:28:24;5.80;;;3.50;;
34152;SDS011;20426;48.372;10.888;2023-04-30T01:28:56;4.88;;;3.53;;
34152;SDS011;20426;48.372;10.888;2023-04-30T01:29:31;3.63;;;2.58;;
34152;SDS011;20426;48.372;10.888;2023-04-30T01:30:05;5.07;;;3.20;;
34152;SDS011;20426;48.372;10.888;2023-04-30T01:30:37;5.00;;;3.05;;
34152;SDS011;20426;48.372;10.888;2023-04-30T01:31:10;5.97;;;3.53;;
34152;SDS011;20426;48.372;10.888;2023-04-30T01:31:44;4.82;;;3.45;;
34152;SDS011;20426;48.372;10.888;2023-04-30T01:32:15;5.40;;;3.80;;
34152;SDS011;20426;48.372;10.888;2023-04-30T01:32:45;4.20;;;3.03;;
34152;SDS011;20426;48.372;10.888;2023-04-30T01:33:16;7.47;;;4.20;;
34152;SDS011;20426;48.372;10.888;2023-04-30T01:33:47;5.10;;;3.38;;
34152;SDS011;20426;48.372;10.888;2023-04-30T01:34:17;5.55;;;3.47;;
34152;SDS011;20426;48.372;10.888;2023-04-30T01:34:48;6.38;;;3.65;;
34152;SDS011;20426;48.372;10.888;2023-04-30T01:35:19;5.60;;;3.80;;
34152;SDS011;20426;48.372;10.888;2023-04-30T01:36:49;5.75;;;3.58;;
34152;SDS011;20426;48.372;10.888;2023-04-30T01:41:36;4.93;;;3.30;;
34152;SDS011;20426;48.372;10.888;2023-04-30T01:42:12;5.55;;;3.67;;
34152;SDS011;20426;48.372;10.888;2023-04-30T01:42:57;5.97;;;3.70;;
34152;SDS011;20426;48.372;10.888;2023-04-30T01:43:36;4.82;;;3.13;;
34152;SDS011;20426;48.372;10.888;2023-04-30T01:45:53;7.45;;;3.35;;
34152;SDS011;20426;48.372;10.888;2023-04-30T01:46:35;4.93;;;2.88;;
34152;SDS011;20426;48.372;10.888;2023-04-30T01:47:32;5.57;;;3.67;;
34152;SDS011;20426;48.372;10.888;2023-04-30T01:50:24;4.93;;;3.67;;
34152;SDS011;20426;48.372;10.888;2023-04-30T01:51:09;6.05;;;3.72;;
34152;SDS011;20426;48.372;10.888;2023-04-30T01:52:51;4.93;;;3.65;;
34152;SDS011;20426;48.372;10.888;2023-04-30T01:53:23;4.90;;;3.47;;
34152;SDS011;20426;48.372;10.888;2023-04-30T01:54:05;6.15;;;3.70;;
34152;SDS011;20426;48.372;10.888;2023-04-30T01:54:59;4.50;;;3.40;;
34152;SDS011;20426;48.372;10.888;2023-04-30T01:57:20;5.57;;;3.75;;
34152;SDS011;20426;48.372;10.888;2023-04-30T01:58:23;4.28;;;3.25;;
34152;SDS011;20426;48.372;10.888;2023-04-30T01:58:55;4.93;;;3.50;;
34152;SDS011;20426;48.372;10.888;2023-04-30T01:59:27;6.13;;;4.05;;
34152;SDS011;20426;48.372;10.888;2023-04-30T01:59:58;7.65;;;4.35;;
34152;SDS011;20426;48.372;10.888;2023-04-30T02:00:30;6.82;;;3.50;;
34152;SDS011;20426;48.372;10.888;2023-04-30T02:01:02;5.28;;;3.65;;
34152;SDS011;20426;48.372;10.888;2023-04-30T02:01:33;4.82;;;3.58;;
34152;SDS011;20426;48.372;10.888;2023-04-30T02:02:05;6.38;;;4.05;;
34152;SDS011;20426;48.372;10.888;2023-04-30T02:02:36;5.00;;;3.70;;
34152;SDS011;20426;48.372;10.888;2023-04-30T02:03:07;4.72;;;3.65;;
34152;SDS011;20426;48.372;10.888;2023-04-30T02:03:38;5.25;;;3.60;;
34152;SDS011;20426;48.372;10.888;2023-04-30T02:04:08;5.65;;;4.22;;
34152;SDS011;20426;48.372;10.888;2023-04-30T02:04:39;5.22;;;3.30;;
34152;SDS011;20426;48.372;10.888;2023-04-30T02:05:10;6.57;;;4.50;;
34152;SDS011;20426;48.372;10.888;2023-04-30T02:05:41;7.47;;;3.97;;
34152;SDS011;20426;48.372;10.888;2023-04-30T02:06:12;4.80;;;3.42;;
34152;SDS011;20426;48.372;10.888;2023-04-30T02:06:43;5.93;;;4.03;;
34152;SDS011;20426;48.372;10.888;2023-04-30T02:07:16;5.57;;;3.55;;
34152;SDS011;20426;48.372;10.888;2023-04-30T02:08:07;5.72;;;3.63;;
34152;SDS011;20426;48.372;10.888;2023-04-30T02:08:37;6.47;;;4.10;;
34152;SDS011;20426;48.372;10.888;2023-04-30T02:09:09;6.00;;;3.65;;
34152;SDS011;20426;48.372;10.888;2023-04-30T02:09:40;5.22;;;4.10;;
34152;SDS011;20426;48.372;10.888;2023-04-30T02:10:11;5.18;;;3.80;;
34152;SDS011;20426;48.372;10.888;2023-04-30T02:10:42;6.68;;;4.13;;
34152;SDS011;20426;48.372;10.888;2023-04-30T02:11:12;4.93;;;3.50;;
34152;SDS011;20426;48.372;10.888;2023-04-30T02:11:43;5.45;;;3.72;;
34152;SDS011;20426;48.372;10.888;2023-04-30T02:12:14;6.03;;;4.22;;
34152;SDS011;20426;48.372;10.888;2023-04-30T02:12:45;5.07;;;3.72;;
34152;SDS011;20426;48.372;10.888;2023-04-30T02:13:15;6.40;;;4.03;;
34152;SDS011;20426;48.372;10.888;2023-04-30T02:13:46;6.15;;;3.88;;
34152;SDS011;20426;48.372;10.888;2023-04-30T02:14:17;6.28;;;3.92;;
34152;SDS011;20426;48.372;10.888;2023-04-30T02:14:48;4.45;;;3.70;;
34152;SDS011;20426;48.372;10.888;2023-04-30T02:15:19;4.80;;;3.60;;
34152;SDS011;20426;48.372;10.888;2023-04-30T02:15:50;5.18;;;3.90;;
34152;SDS011;20426;48.372;10.888;2023-04-30T02:16:21;8.60;;;4.00;;
34152;SDS011;20426;48.372;10.888;2023-04-30T02:16:54;4.75;;;4.07;;
34152;SDS011;20426;48.372;10.888;2023-04-30T02:17:26;4.93;;;4.03;;
34152;SDS011;20426;48.372;10.888;2023-04-30T02:17:56;4.93;;;3.55;;
34152;SDS011;20426;48.372;10.888;2023-04-30T02:18:28;5.53;;;4.03;;
34152;SDS011;20426;48.372;10.888;2023-04-30T02:18:58;8.05;;;4.22;;
34152;SDS011;20426;48.372;10.888;2023-04-30T02:19:29;6.53;;;4.20;;
34152;SDS011;20426;48.372;10.888;2023-04-30T02:20:00;4.68;;;3.75;;
34152;SDS011;20426;48.372;10.888;2023-04-30T02:20:31;5.68;;;4.15;;
34152;SDS011;20426;48.372;10.888;2023-04-30T02:21:02;5.55;;;3.90;;
34152;SDS011;20426;48.372;10.888;2023-04-30T02:21:33;6.28;;;4.28;;
34152;SDS011;20426;48.372;10.888;2023-04-30T02:22:03;5.03;;;3.67;;
34152;SDS011;20426;48.372;10.888;2023-04-30T02:22:34;5.68;;;3.65;;
34152;SDS011;20426;48.372;10.888;2023-04-30T02:23:05;6.38;;;4.10;;
34152;SDS011;20426;48.372;10.888;2023-04-30T02:23:39;6.25;;;3.97;;
34152;SDS011;20426;48.372;10.888;2023-04-30T02:24:10;4.78;;;3.63;;
34152;SDS011;20426;48.372;10.888;2023-04-30T02:24:42;5.07;;;3.80;;
34152;SDS011;20426;48.372;10.888;2023-04-30T02:25:13;5.50;;;4.22;;
34152;SDS011;20426;48.372;10.888;2023-04-30T02:25:43;9.18;;;4.10;;
34152;SDS011;20426;48.372;10.888;2023-04-30T02:26:14;7.43;;;4.10;;
34152;SDS011;20426;48.372;10.888;2023-04-30T02:26:45;5.05;;;4.05;;
34152;SDS011;20426;48.372;10.888;2023-04-30T02:27:15;5.15;;;3.47;;
34152;SDS011;20426;48.372;10.888;2023-04-30T02:27:47;6.78;;;4.28;;
34152;SDS011;20426;48.372;10.888;2023-04-30T02:28:19;5.43;;;4.22;;
34152;SDS011;20426;48.372;10.888;2023-04-30T02:28:50;5.88;;;3.92;;
34152;SDS011;20426;48.372;10.888;2023-04-30T02:29:21;5.47;;;3.92;;
34152;SDS011;20426;48.372;10.888;2023-04-30T02:29:52;6.55;;;4.28;;
34152;SDS011;20426;48.372;10.888;2023-04-30T02:30:23;6.30;;;3.83;;
34152;SDS011;20426;48.372;10.888;2023-04-30T02:30:56;7.63;;;3.85;;
34152;SDS011;20426;48.372;10.888;2023-04-30T02:31:26;6.30;;;4.57;;
34152;SDS011;20426;48.372;10.888;2023-04-30T02:31:57;5.22;;;3.80;;
34152;SDS011;20426;48.372;10.888;2023-04-30T02:32:28;5.30;;;3.85;;
34152;SDS011;20426;48.372;10.888;2023-04-30T02:32:59;5.45;;;3.95;;
34152;SDS011;20426;48.372;10.888;2023-04-30T02:33:32;8.30;;;3.83;;
34152;SDS011;20426;48.372;10.888;2023-04-30T02:34:03;7.18;;;3.88;;
34152;SDS011;20426;48.372;10.888;2023-04-30T02:34:33;6.20;;;4.30;;
34152;SDS011;20426;48.372;10.888;2023-04-30T02:35:04;5.00;;;3.92;;
34152;SDS011;20426;48.372;10.888;2023-04-30T02:35:35;5.18;;;3.88;;
34152;SDS011;20426;48.372;10.888;2023-04-30T02:36:06;5.45;;;4.07;;
34152;SDS011;20426;48.372;10.888;2023-04-30T02:36:38;5.45;;;4.00;;
34152;SDS011;20426;48.372;10.888;2023-04-30T02:37:09;6.07;;;3.92;;
34152;SDS011;20426;48.372;10.888;2023-04-30T02:37:39;5.50;;;3.90;;
34152;SDS011;20426;48.372;10.888;2023-04-30T02:38:11;4.13;;;3.58;;
34152;SDS011;20426;48.372;10.888;2023-04-30T02:38:41;6.63;;;4.07;;
34152;SDS011;20426;48.372;10.888;2023-04-30T02:39:12;5.00;;;3.90;;
34152;SDS011;20426;48.372;10.888;2023-04-30T02:39:43;6.05;;;4.30;;
34152;SDS011;20426;48.372;10.888;2023-04-30T02:40:13;5.72;;;4.10;;
34152;SDS011;20426;48.372;10.888;2023-04-30T02:40:44;5.40;;;4.32;;
34152;SDS011;20426;48.372;10.888;2023-04-30T02:41:15;7.22;;;4.50;;
34152;SDS011;20426;48.372;10.888;2023-04-30T02:41:45;6.88;;;4.47;;
34152;SDS011;20426;48.372;10.888;2023-04-30T02:42:16;6.07;;;4.18;;
34152;SDS011;20426;48.372;10.888;2023-04-30T02:42:47;6.72;;;4.47;;
34152;SDS011;20426;48.372;10.888;2023-04-30T02:43:18;6.00;;;4.20;;
34152;SDS011;20426;48.372;10.888;2023-04-30T02:43:48;6.45;;;4.63;;
34152;SDS011;20426;48.372;10.888;2023-04-30T02:44:20;6.50;;;4.45;;
34152;SDS011;20426;48.372;10.888;2023-04-30T02:44:51;8.35;;;4.53;;
34152;SDS011;20426;48.372;10.888;2023-04-30T02:45:22;6.38;;;4.40;;
34152;SDS011;20426;48.372;10.888;2023-04-30T02:45:54;7.32;;;4.18;;
34152;SDS011;20426;48.372;10.888;2023-04-30T02:46:25;6.95;;;4.22;;
34152;SDS011;20426;48.372;10.888;2023-04-30T02:46:56;7.60;;;4.15;;
34152;SDS011;20426;48.372;10.888;2023-04-30T02:47:26;6.72;;;4.78;;
34152;SDS011;20426;48.372;10.888;2023-04-30T02:47:57;10.65;;;4.88;;
34152;SDS011;20426;48.372;10.888;2023-04-30T02:48:28;7.65;;;4.50;;
34152;SDS011;20426;48.372;10.888;2023-04-30T02:48:59;5.60;;;4.13;;
34152;SDS011;20426;48.372;10.888;2023-04-30T02:49:29;6.90;;;4.38;;
34152;SDS011;20426;48.372;10.888;2023-04-30T02:50:00;6.22;;;4.10;;
34152;SDS011;20426;48.372;10.888;2023-04-30T02:50:31;6.18;;;4.43;;
34152;SDS011;20426;48.372;10.888;2023-04-30T02:51:02;7.38;;;4.82;;
34152;SDS011;20426;48.372;10.888;2023-04-30T02:51:33;8.05;;;4.45;;
34152;SDS011;20426;48.372;10.888;2023-04-30T02:52:04;7.03;;;4.95;;
34152;SDS011;20426;48.372;10.888;2023-04-30T02:52:36;7.00;;;4.68;;
34152;SDS011;20426;48.372;10.888;2023-04-30T02:53:06;6.25;;;4.13;;
34152;SDS011;20426;48.372;10.888;2023-04-30T02:53:37;6.22;;;4.10;;
34152;SDS011;20426;48.372;10.888;2023-04-30T02:54:08;7.30;;;4.82;;
34152;SDS011;20426;48.372;10.888;2023-04-30T02:54:39;6.28;;;4.47;;
34152;SDS011;20426;48.372;10.888;2023-04-30T02:55:10;7.07;;;4.28;;
34152;SDS011;20426;48.372;10.888;2023-04-30T02:55:40;7.28;;;4.57;;
34152;SDS011;20426;48.372;10.888;2023-04-30T02:56:11;6.85;;;3.95;;
34152;SDS011;20426;48.372;10.888;2023-04-30T02:56:42;5.90;;;4.45;;
34152;SDS011;20426;48.372;10.888;2023-04-30T02:57:13;6.65;;;4.30;;
34152;SDS011;20426;48.372;10.888;2023-04-30T02:57:44;6.13;;;4.32;;
34152;SDS011;20426;48.372;10.888;2023-04-30T02:58:15;7.07;;;4.53;;
34152;SDS011;20426;48.372;10.888;2023-04-30T02:58:46;5.65;;;3.90;;
34152;SDS011;20426;48.372;10.888;2023-04-30T02:59:16;7.30;;;4.47;;
34152;SDS011;20426;48.372;10.888;2023-04-30T02:59:47;6.25;;;4.18;;
34152;SDS011;20426;48.372;10.888;2023-04-30T03:00:18;6.47;;;4.40;;
34152;SDS011;20426;48.372;10.888;2023-04-30T03:00:49;5.72;;;4.40;;
34152;SDS011;20426;48.372;10.888;2023-04-30T03:01:19;6.70;;;4.30;;
34152;SDS011;20426;48.372;10.888;2023-04-30T03:01:50;5.80;;;3.97;;
34152;SDS011;20426;48.372;10.888;2023-04-30T03:02:21;6.70;;;4.53;;
34152;SDS011;20426;48.372;10.888;2023-04-30T03:02:52;7.80;;;4.63;;
34152;SDS011;20426;48.372;10.888;2023-04-30T03:03:23;5.50;;;4.30;;
34152;SDS011;20426;48.372;10.888;2023-04-30T03:03:56;6.35;;;4.63;;
34152;SDS011;20426;48.372;10.888;2023-04-30T03:04:28;6.00;;;3.60;;
34152;SDS011;20426;48.372;10.888;2023-04-30T03:04:59;5.70;;;4.38;;
34152;SDS011;20426;48.372;10.888;2023-04-30T03:05:30;7.55;;;4.50;;
34152;SDS011;20426;48.372;10.888;2023-04-30T03:06:01;5.18;;;4.40;;
34152;SDS011;20426;48.372;10.888;2023-04-30T03:06:31;5.63;;;4.15;;
34152;SDS011;20426;48.372;10.888;2023-04-30T03:07:04;6.40;;;4.57;;
34152;SDS011;20426;48.372;10.888;2023-04-30T03:07:47;6.63;;;4.90;;
34152;SDS011;20426;48.372;10.888;2023-04-30T03:08:17;7.15;;;4.25;;
34152;SDS011;20426;48.372;10.888;2023-04-30T03:08:48;6.85;;;4.70;;
34152;SDS011;20426;48.372;10.888;2023-04-30T03:09:20;6.35;;;4.47;;
34152;SDS011;20426;48.372;10.888;2023-04-30T03:09:51;8.57;;;5.32;;
34152;SDS011;20426;48.372;10.888;2023-04-30T03:10:21;8.30;;;4.95;;
34152;SDS011;20426;48.372;10.888;2023-04-30T03:10:52;7.18;;;4.45;;
34152;SDS011;20426;48.372;10.888;2023-04-30T03:11:23;8.50;;;4.65;;
34152;SDS011;20426;48.372;10.888;2023-04-30T03:11:53;7.97;;;4.82;;
34152;SDS011;20426;48.372;10.888;2023-04-30T03:12:24;7.70;;;4.38;;
34152;SDS011;20426;48.372;10.888;2023-04-30T03:12:55;6.78;;;4.75;;
34152;SDS011;20426;48.372;10.888;2023-04-30T03:13:26;5.38;;;4.00;;
34152;SDS011;20426;48.372;10.888;2023-04-30T03:13:56;6.40;;;4.70;;
34152;SDS011;20426;48.372;10.888;2023-04-30T03:14:27;6.45;;;4.32;;
34152;SDS011;20426;48.372;10.888;2023-04-30T03:14:59;9.70;;;5.15;;
34152;SDS011;20426;48.372;10.888;2023-04-30T03:15:31;6.28;;;4.18;;
34152;SDS011;20426;48.372;10.888;2023-04-30T03:16:02;6.53;;;4.22;;
34152;SDS011;20426;48.372;10.888;2023-04-30T03:16:35;7.95;;;4.63;;
34152;SDS011;20426;48.372;10.888;2023-04-30T03:17:06;6.65;;;4.65;;
34152;SDS011;20426;48.372;10.888;2023-04-30T03:17:37;6.75;;;4.68;;
34152;SDS011;20426;48.372;10.888;2023-04-30T03:18:08;7.15;;;4.93;;
34152;SDS011;20426;48.372;10.888;2023-04-30T03:18:39;6.68;;;4.72;;
34152;SDS011;20426;48.372;10.888;2023-04-30T03:19:10;7.18;;;5.07;;
34152;SDS011;20426;48.372;10.888;2023-04-30T03:19:41;6.05;;;4.50;;
34152;SDS011;20426;48.372;10.888;2023-04-30T03:20:12;8.00;;;5.28;;
34152;SDS011;20426;48.372;10.888;2023-04-30T03:20:43;6.13;;;4.70;;
34152;SDS011;20426;48.372;10.888;2023-04-30T03:21:14;9.50;;;5.10;;
34152;SDS011;20426;48.372;10.888;2023-04-30T03:21:45;5.82;;;4.82;;
34152;SDS011;20426;48.372;10.888;2023-04-30T03:22:15;6.28;;;4.75;;
34152;SDS011;20426;48.372;10.888;2023-04-30T03:22:48;6.50;;;4.63;;
34152;SDS011;20426;48.372;10.888;2023-04-30T03:23:19;5.43;;;4.05;;
34152;SDS011;20426;48.372;10.888;2023-04-30T03:23:50;7.13;;;4.82;;
34152;SDS011;20426;48.372;10.888;2023-04-30T03:24:21;8.35;;;4.95;;
34152;SDS011;20426;48.372;10.888;2023-04-30T03:24:52;6.88;;;4.57;;
34152;SDS011;20426;48.372;10.888;2023-04-30T03:25:23;8.55;;;5.40;;
34152;SDS011;20426;48.372;10.888;2023-04-30T03:25:54;9.77;;;4.47;;
34152;SDS011;20426;48.372;10.888;2023-04-30T03:26:25;7.75;;;4.28;;
34152;SDS011;20426;48.372;10.888;2023-04-30T03:26:56;7.68;;;4.93;;
34152;SDS011;20426;48.372;10.888;2023-04-30T03:27:28;9.68;;;4.30;;
34152;SDS011;20426;48.372;10.888;2023-04-30T03:27:59;7.07;;;5.35;;
34152;SDS011;20426;48.372;10.888;2023-04-30T03:28:29;6.57;;;4.80;;
34152;SDS011;20426;48.372;10.888;2023-04-30T03:29:00;6.07;;;4.70;;
34152;SDS011;20426;48.372;10.888;2023-04-30T03:29:31;7.38;;;4.88;;
34152;SDS011;20426;48.372;10.888;2023-04-30T03:30:02;6.65;;;5.10;;